Time;durP1;ratioP1;P1;durP2;ratioP2;P2;SDS_P1;SDS_P2;PMS_P1;PMS_P2;Temp;Humidity;BMP_temperature;BMP_pressure;BME280_temperature;BME280_humidity;BME280_pressure;Samples;Min_cycle;Max_cycle;Signal;HPM_P1;HPM_P2
2023/12/19 00:00:46;;;;;;;30.15;19.52;;;7.20;99.90;;;;;;5038082;28;20473;-88
2023/12/19 00:03:12;;;;;;;32.72;20.00;;;7.20;99.90;;;;;;5054439;28;20112;-85
2023/12/19 00:05:40;;;;;;;34.92;21.52;;;7.20;99.90;;;;;;5054215;28;20176;-87
2023/12/19 00:08:07;;;;;;;32.78;20.95;;;7.20;99.90;;;;;;5054459;28;20025;-86
2023/12/19 00:10:34;;;;;;;30.08;19.73;;;7.30;99.90;;;;;;5053849;28;20087;-87
2023/12/19 00:13:00;;;;;;;37.42;22.27;;;7.20;99.90;;;;;;5054886;28;20021;-87
2023/12/19 00:15:26;;;;;;;32.20;19.25;;;7.20;99.90;;;;;;5037279;28;20108;-87
2023/12/19 00:17:52;;;;;;;30.30;20.15;;;7.20;99.90;;;;;;5055799;28;20118;-87
2023/12/19 00:20:17;;;;;;;32.45;20.15;;;7.20;99.90;;;;;;5074954;28;20005;-85
2023/12/19 00:22:43;;;;;;;29.92;20.92;;;7.20;99.90;;;;;;5062052;28;20116;-85
2023/12/19 00:25:09;;;;;;;28.00;18.77;;;7.20;99.90;;;;;;5078664;28;20025;-86
2023/12/19 00:27:38;;;;;;;32.80;20.50;;;7.20;99.90;;;;;;5071387;28;20028;-88
2023/12/19 00:30:04;;;;;;;26.65;18.83;;;7.20;99.90;;;;;;5054650;28;20418;-87
2023/12/19 00:32:32;;;;;;;31.75;20.88;;;7.30;99.90;;;;;;5054094;28;20068;-88
2023/12/19 00:34:57;;;;;;;29.08;19.30;;;7.30;99.90;;;;;;5037950;28;20487;-88
2023/12/19 00:37:23;;;;;;;31.92;20.63;;;7.30;99.90;;;;;;5037369;28;20120;-88
2023/12/19 00:39:49;;;;;;;29.10;19.40;;;7.30;99.90;;;;;;5054913;28;20104;-88
2023/12/19 00:42:14;;;;;;;27.95;18.85;;;7.30;99.90;;;;;;5055136;28;20064;-87
2023/12/19 00:44:40;;;;;;;29.00;18.38;;;7.40;99.90;;;;;;5054262;28;20028;-88
2023/12/19 00:47:06;;;;;;;27.98;18.83;;;7.40;99.90;;;;;;5036879;28;20037;-89
2023/12/19 00:49:31;;;;;;;32.38;20.40;;;7.40;99.90;;;;;;5053657;28;20385;-88
2023/12/19 00:51:57;;;;;;;29.67;19.75;;;7.40;99.90;;;;;;5054387;28;20021;-88
2023/12/19 00:54:23;;;;;;;26.65;18.40;;;7.40;99.90;;;;;;5053411;28;20039;-88
2023/12/19 00:56:48;;;;;;;30.42;20.83;;;7.40;99.90;;;;;;5053891;28;20529;-88
2023/12/19 00:59:14;;;;;;;28.27;19.48;;;7.40;99.90;;;;;;5053595;28;20021;-88
2023/12/19 01:01:40;;;;;;;30.67;19.45;;;7.40;99.90;;;;;;5053629;28;20029;-88
2023/12/19 01:04:06;;;;;;;29.67;17.77;;;7.40;99.90;;;;;;5054580;28;20033;-88
2023/12/19 01:06:32;;;;;;;28.75;19.80;;;7.40;99.90;;;;;;5053049;28;20052;-88
2023/12/19 01:08:57;;;;;;;28.35;19.25;;;7.40;99.90;;;;;;5053080;28;20017;-88
2023/12/19 01:11:23;;;;;;;29.05;19.02;;;7.40;99.90;;;;;;5052895;28;20035;-88
2023/12/19 01:13:50;;;;;;;30.20;19.20;;;7.40;99.90;;;;;;5053156;28;20047;-88
2023/12/19 01:16:16;;;;;;;29.17;19.60;;;7.40;99.90;;;;;;5053252;28;20029;-88
2023/12/19 01:18:42;;;;;;;30.30;19.13;;;7.40;99.90;;;;;;5052866;28;20025;-88
2023/12/19 01:21:08;;;;;;;29.27;19.27;;;7.40;99.90;;;;;;5052833;28;20029;-88
2023/12/19 01:23:33;;;;;;;34.25;20.90;;;7.40;99.90;;;;;;5053216;28;20549;-89
2023/12/19 01:25:59;;;;;;;28.60;18.52;;;7.40;99.90;;;;;;5036612;28;20040;-88
2023/12/19 01:28:25;;;;;;;30.73;19.77;;;7.40;99.90;;;;;;5053198;28;20480;-87
2023/12/19 01:30:51;;;;;;;30.00;19.63;;;7.40;99.90;;;;;;5052965;28;20112;-88
2023/12/19 01:33:17;;;;;;;28.20;18.98;;;7.40;99.90;;;;;;5053171;28;20448;-86
2023/12/19 01:35:42;;;;;;;30.58;19.35;;;7.40;99.90;;;;;;5052879;28;20727;-88
2023/12/19 01:38:09;;;;;;;26.45;18.45;;;7.40;99.90;;;;;;5053149;28;20378;-88
2023/12/19 01:40:35;;;;;;;29.73;19.27;;;7.40;99.90;;;;;;5053212;28;20028;-88
2023/12/19 01:43:01;;;;;;;27.83;19.05;;;7.50;99.90;;;;;;5054650;28;20025;-87
2023/12/19 01:45:30;;;;;;;35.00;19.75;;;7.50;99.90;;;;;;5065235;28;20064;-87
2023/12/19 01:47:56;;;;;;;27.42;18.40;;;7.50;99.90;;;;;;5060599;28;20024;-87
2023/12/19 01:50:22;;;;;;;28.58;19.42;;;7.50;99.90;;;;;;5077572;28;20025;-88
2023/12/19 01:52:50;;;;;;;27.67;18.52;;;7.50;99.90;;;;;;5077489;28;20032;-86
2023/12/19 01:55:17;;;;;;;29.60;18.95;;;7.60;99.90;;;;;;5069501;28;20071;-88
2023/12/19 01:57:44;;;;;;;28.40;19.02;;;7.60;99.90;;;;;;5057270;28;20021;-88
2023/12/19 02:00:13;;;;;;;27.42;18.95;;;7.70;99.90;;;;;;5057574;28;20021;-88
2023/12/19 02:02:41;;;;;;;26.45;18.35;;;7.60;99.90;;;;;;5056988;28;20121;-88
2023/12/19 02:05:10;;;;;;;27.42;18.80;;;7.70;99.90;;;;;;5058248;28;20155;-88
2023/12/19 02:07:35;;;;;;;32.10;19.50;;;7.60;99.90;;;;;;5056310;28;20083;-88
2023/12/19 02:10:01;;;;;;;26.48;19.38;;;7.60;99.90;;;;;;5040120;28;20060;-88
2023/12/19 02:12:27;;;;;;;28.23;18.45;;;7.60;99.90;;;;;;5056410;28;20036;-88
2023/12/19 02:14:54;;;;;;;27.77;17.58;;;7.70;99.90;;;;;;5056459;28;20461;-88
2023/12/19 02:17:21;;;;;;;27.95;17.40;;;7.70;99.90;;;;;;5056302;28;20025;-89
2023/12/19 02:19:48;;;;;;;30.40;19.40;;;7.70;99.90;;;;;;5056305;28;20021;-88
2023/12/19 02:22:14;;;;;;;27.48;18.13;;;7.70;99.90;;;;;;5056731;28;20017;-88
2023/12/19 02:24:41;;;;;;;29.58;18.95;;;7.70;99.90;;;;;;5055997;28;20044;-88
2023/12/19 02:27:07;;;;;;;27.30;19.10;;;7.70;99.90;;;;;;5056476;28;20036;-88
2023/12/19 02:29:33;;;;;;;27.83;18.45;;;7.70;99.90;;;;;;5056260;28;20025;-89
2023/12/19 02:32:02;;;;;;;30.40;20.63;;;7.70;99.90;;;;;;5056339;28;20079;-88
2023/12/19 02:34:29;;;;;;;30.13;19.50;;;7.70;99.90;;;;;;5057577;28;20520;-88
2023/12/19 02:36:55;;;;;;;28.48;19.23;;;7.70;99.90;;;;;;5055786;28;20017;-88
2023/12/19 02:39:21;;;;;;;27.45;18.88;;;7.70;99.90;;;;;;5056053;28;20021;-88
2023/12/19 02:41:46;;;;;;;28.15;18.27;;;7.70;99.90;;;;;;5039537;28;20029;-89
2023/12/19 02:44:12;;;;;;;25.02;17.52;;;7.70;99.90;;;;;;5056072;28;20066;-89
2023/12/19 02:46:38;;;;;;;26.85;17.48;;;7.70;99.90;;;;;;5055844;28;20107;-88
2023/12/19 02:49:04;;;;;;;27.83;19.80;;;7.70;99.90;;;;;;5039590;28;20079;-88
2023/12/19 02:51:30;;;;;;;26.63;18.25;;;7.70;99.90;;;;;;5055629;28;20024;-89
2023/12/19 02:53:57;;;;;;;30.17;20.20;;;7.70;99.90;;;;;;5057182;28;20021;-88
2023/12/19 02:56:23;;;;;;;30.90;19.52;;;7.70;99.90;;;;;;5056022;28;20082;-89
2023/12/19 02:58:49;;;;;;;30.90;19.90;;;7.70;99.90;;;;;;5038948;28;20025;-88
2023/12/19 03:01:15;;;;;;;30.52;19.98;;;7.70;99.90;;;;;;5072924;28;20123;-88
2023/12/19 03:03:44;;;;;;;30.20;19.45;;;7.80;99.90;;;;;;5055601;28;20017;-88
2023/12/19 03:06:13;;;;;;;29.65;18.67;;;7.80;99.90;;;;;;5055558;28;20049;-88
2023/12/19 03:08:43;;;;;;;26.63;18.33;;;7.80;99.90;;;;;;5057676;28;20063;-90
2023/12/19 03:11:08;;;;;;;28.95;19.42;;;7.80;99.90;;;;;;5060027;28;20040;-85
2023/12/19 03:13:34;;;;;;;27.15;18.10;;;7.80;99.90;;;;;;5076127;28;20017;-84
2023/12/19 03:16:00;;;;;;;29.38;19.65;;;7.80;99.90;;;;;;5061774;28;20030;-88
2023/12/19 03:18:25;;;;;;;26.80;18.52;;;7.80;99.90;;;;;;5062081;28;20005;-87
2023/12/19 03:20:52;;;;;;;29.77;19.13;;;7.80;99.90;;;;;;5052416;28;20029;-88
2023/12/19 03:23:18;;;;;;;31.75;20.73;;;7.80;99.90;;;;;;5057466;28;20052;-87
2023/12/19 03:25:44;;;;;;;26.85;18.45;;;7.80;99.90;;;;;;5039606;28;20076;-88
2023/12/19 03:28:10;;;;;;;29.98;20.92;;;7.80;99.90;;;;;;5039260;28;20048;-88
2023/12/19 03:30:36;;;;;;;28.88;19.27;;;7.80;99.90;;;;;;5055795;28;20021;-87
2023/12/19 03:33:02;;;;;;;26.35;18.83;;;7.80;99.90;;;;;;5056753;28;20148;-87
2023/12/19 03:35:34;;;;;;;31.65;20.00;;;7.90;99.90;;;;;;5038975;28;20043;-88
2023/12/19 03:38:00;;;;;;;29.92;19.85;;;7.90;99.90;;;;;;5055311;28;20025;-87
2023/12/19 03:40:26;;;;;;;29.15;19.15;;;7.90;99.90;;;;;;5038817;28;20059;-88
2023/12/19 03:42:52;;;;;;;24.58;17.15;;;7.90;99.90;;;;;;5038570;28;20057;-88
2023/12/19 03:45:18;;;;;;;26.05;17.65;;;7.90;99.90;;;;;;5054878;28;20021;-87
2023/12/19 03:47:43;;;;;;;27.02;17.20;;;8.00;99.90;;;;;;5055110;28;20064;-88
2023/12/19 03:50:09;;;;;;;24.80;16.73;;;8.00;99.90;;;;;;5038638;28;20021;-87
2023/12/19 03:52:35;;;;;;;23.90;16.52;;;7.90;99.90;;;;;;5056389;28;20021;-87
2023/12/19 03:55:01;;;;;;;20.50;14.73;;;7.90;99.90;;;;;;5038728;28;20033;-87
2023/12/19 03:57:27;;;;;;;24.10;15.57;;;7.90;99.90;;;;;;5056156;28;20043;-87
2023/12/19 03:59:53;;;;;;;22.77;15.30;;;7.90;99.90;;;;;;5038187;28;20417;-87
2023/12/19 04:02:20;;;;;;;20.58;14.02;;;7.90;99.90;;;;;;5054725;28;20055;-87
2023/12/19 04:04:45;;;;;;;20.33;14.55;;;7.90;99.90;;;;;;5054331;28;20021;-87
2023/12/19 04:07:11;;;;;;;18.98;13.52;;;7.90;99.90;;;;;;5054645;28;20404;-86
2023/12/19 04:09:37;;;;;;;20.60;13.95;;;7.90;99.90;;;;;;5054590;28;20040;-87
2023/12/19 04:12:03;;;;;;;19.25;14.25;;;7.90;99.90;;;;;;5055756;28;20029;-86
2023/12/19 04:14:33;;;;;;;18.75;13.32;;;8.00;99.90;;;;;;5054723;28;20029;-86
2023/12/19 04:17:01;;;;;;;19.77;13.85;;;7.90;99.90;;;;;;5037774;28;20473;-87
2023/12/19 04:19:27;;;;;;;18.50;13.07;;;8.00;99.90;;;;;;5037007;28;20031;-87
2023/12/19 04:21:53;;;;;;;16.60;12.68;;;8.00;99.90;;;;;;5054615;28;20111;-87
2023/12/19 04:24:19;;;;;;;18.65;13.68;;;8.00;99.90;;;;;;5055652;28;20021;-86
2023/12/19 04:26:48;;;;;;;17.58;13.30;;;8.00;99.90;;;;;;5038082;28;20416;-85
2023/12/19 04:29:14;;;;;;;17.75;13.07;;;7.90;99.90;;;;;;5040737;28;20031;-86
2023/12/19 04:31:41;;;;;;;19.23;13.77;;;7.90;99.90;;;;;;5059489;28;20029;-86
2023/12/19 04:34:07;;;;;;;19.95;13.80;;;7.90;99.90;;;;;;5058169;28;20465;-87
2023/12/19 04:36:33;;;;;;;18.10;12.80;;;7.90;99.90;;;;;;5042668;28;20044;-86
2023/12/19 04:38:59;;;;;;;18.17;12.60;;;7.90;99.90;;;;;;5067953;28;20005;-85
2023/12/19 04:41:25;;;;;;;17.63;13.57;;;7.90;99.90;;;;;;5077655;28;20040;-86
2023/12/19 04:43:51;;;;;;;17.45;11.88;;;8.00;99.90;;;;;;5060678;28;20051;-83
2023/12/19 04:46:16;;;;;;;16.85;11.90;;;8.00;99.90;;;;;;5060098;28;20124;-86
2023/12/19 04:48:42;;;;;;;17.65;12.48;;;8.00;99.90;;;;;;5062066;28;20110;-86
2023/12/19 04:51:19;;;;;;;14.23;11.15;;;8.00;99.90;;;;;;5054566;28;20561;-86
2023/12/19 04:53:46;;;;;;;16.52;12.20;;;8.00;99.90;;;;;;5055005;28;20083;-86
2023/12/19 04:56:11;;;;;;;14.50;10.57;;;8.00;99.90;;;;;;5054897;28;20017;-86
2023/12/19 04:58:38;;;;;;;13.00;10.00;;;8.00;99.90;;;;;;5053620;28;20044;-86
2023/12/19 05:01:04;;;;;;;12.27;9.82;;;7.90;99.90;;;;;;5053332;28;20055;-86
2023/12/19 05:03:29;;;;;;;12.65;10.13;;;8.00;99.90;;;;;;5053245;28;20025;-87
2023/12/19 05:05:55;;;;;;;13.45;10.00;;;7.90;99.90;;;;;;5036558;28;20057;-86
2023/12/19 05:08:25;;;;;;;12.65;9.52;;;7.90;99.90;;;;;;5036977;28;20048;-85
2023/12/19 05:10:50;;;;;;;13.68;10.07;;;7.90;99.90;;;;;;5036356;28;20051;-86
2023/12/19 05:13:16;;;;;;;12.35;9.80;;;7.90;99.90;;;;;;5036752;28;20025;-87
2023/12/19 05:15:42;;;;;;;13.95;11.02;;;7.90;99.90;;;;;;5052848;28;20033;-86
2023/12/19 05:18:07;;;;;;;13.10;10.88;;;7.90;99.90;;;;;;5052802;28;20524;-86
2023/12/19 05:20:39;;;;;;;14.85;11.30;;;7.90;99.90;;;;;;5036611;28;20061;-87
2023/12/19 05:23:05;;;;;;;14.73;10.90;;;8.00;99.90;;;;;;5053040;28;20021;-86
2023/12/19 05:25:31;;;;;;;15.15;11.45;;;8.00;99.90;;;;;;5053098;28;20037;-88
2023/12/19 05:27:56;;;;;;;14.85;11.10;;;8.00;99.90;;;;;;5036676;28;20511;-88
2023/12/19 05:30:25;;;;;;;13.57;10.90;;;8.00;99.90;;;;;;5052911;28;20036;-87
2023/12/19 05:32:51;;;;;;;15.95;11.98;;;8.00;99.90;;;;;;5070111;28;20017;-87
2023/12/19 05:35:16;;;;;;;15.10;11.65;;;8.00;99.90;;;;;;5053270;28;20040;-87
2023/12/19 05:37:43;;;;;;;15.52;12.45;;;8.00;99.90;;;;;;5036441;28;20021;-88
2023/12/19 05:40:09;;;;;;;17.05;12.07;;;8.00;99.90;;;;;;5052324;28;20567;-86
2023/12/19 05:42:36;;;;;;;18.42;13.50;;;8.10;99.90;;;;;;5052975;28;20036;-87
2023/12/19 05:45:03;;;;;;;15.43;11.50;;;8.10;99.90;;;;;;5052059;28;20116;-85
2023/12/19 05:47:29;;;;;;;16.05;11.82;;;8.10;99.90;;;;;;5052403;28;20025;-86
2023/12/19 05:49:55;;;;;;;17.27;12.23;;;8.10;99.90;;;;;;5035753;28;20067;-87
2023/12/19 05:52:20;;;;;;;15.02;11.20;;;8.10;99.90;;;;;;5053100;28;20039;-87
2023/12/19 05:54:46;;;;;;;15.57;11.75;;;8.10;99.90;;;;;;5052389;28;20039;-86
2023/12/19 05:57:11;;;;;;;16.20;12.57;;;8.10;99.90;;;;;;5036989;28;20028;-87
2023/12/19 05:59:37;;;;;;;16.98;12.77;;;8.20;99.90;;;;;;5036617;28;20075;-86
2023/12/19 06:02:03;;;;;;;19.50;14.20;;;8.10;99.90;;;;;;5040179;28;20025;-85
2023/12/19 06:04:29;;;;;;;17.45;13.82;;;8.20;99.90;;;;;;5071374;28;20032;-85
2023/12/19 06:06:54;;;;;;;19.00;13.60;;;8.20;99.90;;;;;;5076110;28;20056;-86
2023/12/19 06:09:20;;;;;;;19.98;13.95;;;8.20;99.90;;;;;;5075262;28;20092;-84
2023/12/19 06:11:45;;;;;;;18.67;14.10;;;8.20;99.90;;;;;;5073179;28;20041;-87
2023/12/19 06:14:11;;;;;;;16.90;13.10;;;8.20;99.90;;;;;;5054943;28;20045;-87
2023/12/19 06:16:37;;;;;;;18.50;13.52;;;8.20;99.90;;;;;;5053287;28;20036;-88
2023/12/19 06:19:05;;;;;;;16.20;13.27;;;8.20;99.90;;;;;;5036370;28;20033;-87
2023/12/19 06:21:31;;;;;;;19.52;13.93;;;8.20;99.90;;;;;;5052664;28;20056;-88
2023/12/19 06:23:57;;;;;;;20.45;13.32;;;8.20;99.90;;;;;;5035721;28;20063;-86
2023/12/19 06:26:23;;;;;;;17.38;13.23;;;8.20;99.90;;;;;;5035251;28;20178;-88
2023/12/19 06:28:48;;;;;;;20.83;15.75;;;8.20;99.90;;;;;;5036011;28;20017;-88
2023/12/19 06:31:14;;;;;;;17.58;13.73;;;8.20;99.90;;;;;;5035844;28;20017;-88
2023/12/19 06:33:40;;;;;;;18.13;14.13;;;8.20;99.90;;;;;;5035605;28;20025;-87
2023/12/19 06:36:06;;;;;;;20.35;14.98;;;8.20;99.90;;;;;;5035680;28;20392;-87
2023/12/19 06:38:32;;;;;;;21.05;14.80;;;8.30;99.90;;;;;;5052283;28;20029;-86
2023/12/19 06:41:00;;;;;;;19.45;13.65;;;8.30;99.90;;;;;;5035769;28;20376;-87
2023/12/19 06:43:26;;;;;;;16.88;13.05;;;8.30;99.90;;;;;;5054794;28;20033;-87
2023/12/19 06:45:54;;;;;;;16.98;13.35;;;8.30;99.90;;;;;;5039654;28;20037;-87
2023/12/19 06:48:23;;;;;;;18.58;14.10;;;8.30;99.90;;;;;;5055865;28;20380;-88
2023/12/19 06:50:48;;;;;;;20.02;14.32;;;8.30;99.90;;;;;;5039558;28;20029;-86
2023/12/19 06:53:14;;;;;;;16.77;13.43;;;8.40;99.90;;;;;;5055676;28;20040;-86
2023/12/19 06:55:40;;;;;;;19.42;14.48;;;8.30;99.90;;;;;;5039456;28;20483;-87
2023/12/19 06:58:05;;;;;;;16.83;14.32;;;8.40;99.90;;;;;;5057537;28;20124;-86
2023/12/19 07:00:34;;;;;;;18.52;13.98;;;8.40;99.90;;;;;;5055613;28;20036;-87
2023/12/19 07:03:00;;;;;;;18.95;13.82;;;8.40;99.90;;;;;;5055779;28;20056;-88
2023/12/19 07:05:25;;;;;;;16.80;13.65;;;8.40;99.90;;;;;;5055768;28;20036;-88
2023/12/19 07:07:51;;;;;;;17.35;13.75;;;8.40;99.90;;;;;;5055609;28;20064;-87
2023/12/19 07:10:18;;;;;;;18.80;14.18;;;8.40;99.90;;;;;;5055660;28;20112;-87
2023/12/19 07:12:43;;;;;;;19.63;15.05;;;8.40;99.90;;;;;;5055459;28;20384;-87
2023/12/19 07:15:09;;;;;;;18.60;14.40;;;8.40;99.90;;;;;;5039103;28;20040;-87
2023/12/19 07:17:35;;;;;;;22.45;16.17;;;8.50;99.90;;;;;;5055481;28;20035;-87
2023/12/19 07:20:01;;;;;;;23.05;16.38;;;8.40;99.90;;;;;;5055732;28;20044;-86
2023/12/19 07:22:26;;;;;;;19.30;14.75;;;8.40;99.90;;;;;;5055846;28;20028;-86
2023/12/19 07:24:55;;;;;;;22.08;15.32;;;8.40;99.90;;;;;;5055920;28;20472;-86
2023/12/19 07:27:21;;;;;;;21.13;16.75;;;8.50;99.90;;;;;;5056071;28;20040;-87
2023/12/19 07:29:50;;;;;;;25.83;16.23;;;8.50;99.90;;;;;;5056337;28;20037;-87
2023/12/19 07:32:16;;;;;;;21.73;16.48;;;8.50;99.90;;;;;;5057752;28;20119;-87
2023/12/19 07:34:41;;;;;;;24.63;16.85;;;8.50;99.90;;;;;;5072836;28;20029;-87
2023/12/19 07:37:07;;;;;;;26.00;17.30;;;8.50;99.90;;;;;;5061900;28;20029;-83
2023/12/19 07:39:32;;;;;;;23.98;18.73;;;8.50;99.90;;;;;;5078644;28;20038;-87
2023/12/19 07:41:58;;;;;;;24.25;18.48;;;8.40;99.90;;;;;;5060508;28;20009;-86
2023/12/19 07:44:24;;;;;;;27.52;19.23;;;8.40;99.90;;;;;;5056412;28;20041;-86
2023/12/19 07:46:54;;;;;;;22.95;17.67;;;8.40;99.90;;;;;;5038026;28;20440;-86
2023/12/19 07:49:19;;;;;;;26.65;19.35;;;8.40;99.90;;;;;;5056137;28;20021;-87
2023/12/19 07:51:45;;;;;;;24.70;19.40;;;8.40;99.90;;;;;;5054748;28;20036;-87
2023/12/19 07:54:11;;;;;;;26.67;19.60;;;8.50;99.90;;;;;;5036522;28;20090;-87
2023/12/19 07:56:41;;;;;;;27.92;19.48;;;8.50;99.90;;;;;;5037669;28;20086;-87
2023/12/19 07:59:06;;;;;;;28.10;19.90;;;8.40;99.90;;;;;;5054856;28;20029;-87
2023/12/19 08:01:32;;;;;;;29.58;20.65;;;8.50;99.90;;;;;;5037815;28;20116;-86
2023/12/19 08:03:59;;;;;;;29.48;19.08;;;8.50;99.90;;;;;;5055618;28;20511;-86
2023/12/19 08:06:24;;;;;;;24.30;19.00;;;8.50;99.90;;;;;;5053972;28;20116;-88
2023/12/19 08:08:51;;;;;;;30.27;19.50;;;8.50;99.90;;;;;;5037627;28;20115;-86
2023/12/19 08:11:17;;;;;;;29.25;20.42;;;8.50;99.90;;;;;;5053958;28;20137;-87
2023/12/19 08:13:44;;;;;;;25.20;18.85;;;8.50;99.90;;;;;;5054134;28;20465;-87
2023/12/19 08:16:10;;;;;;;27.95;20.75;;;8.50;99.90;;;;;;5054234;28;20477;-85
2023/12/19 08:18:36;;;;;;;27.45;18.65;;;8.50;99.90;;;;;;5053860;28;20381;-86
2023/12/19 08:21:05;;;;;;;27.10;19.40;;;8.50;99.90;;;;;;5054019;28;20025;-86
2023/12/19 08:23:31;;;;;;;25.98;19.25;;;8.50;99.90;;;;;;5054968;28;20018;-86
2023/12/19 08:25:57;;;;;;;27.80;20.00;;;8.50;99.90;;;;;;5053750;28;20067;-85
2023/12/19 08:28:23;;;;;;;25.63;17.95;;;8.60;99.90;;;;;;5036721;28;20048;-84
2023/12/19 08:30:48;;;;;;;27.52;19.35;;;8.60;99.90;;;;;;5053888;28;20029;-87
2023/12/19 08:33:14;;;;;;;26.15;19.38;;;8.60;99.90;;;;;;5054213;28;20032;-85
2023/12/19 08:35:39;;;;;;;23.67;18.17;;;8.60;99.90;;;;;;5037247;28;20137;-86
2023/12/19 08:38:05;;;;;;;28.58;19.17;;;8.60;99.90;;;;;;5037080;28;20029;-85
2023/12/19 08:40:31;;;;;;;28.52;19.52;;;8.60;99.90;;;;;;5053347;28;20040;-86
2023/12/19 08:43:00;;;;;;;25.58;17.90;;;8.60;99.90;;;;;;5037026;28;20052;-87
2023/12/19 08:45:28;;;;;;;25.10;17.70;;;8.60;99.90;;;;;;5053913;28;20119;-87
2023/12/19 08:47:54;;;;;;;24.05;18.67;;;8.60;99.90;;;;;;5037773;28;20528;-87
2023/12/19 08:50:20;;;;;;;27.98;18.10;;;8.70;99.90;;;;;;5053899;28;20036;-87
2023/12/19 08:52:47;;;;;;;25.83;17.15;;;8.70;99.90;;;;;;5070645;28;20029;-87
2023/12/19 08:55:13;;;;;;;22.95;17.10;;;8.80;99.90;;;;;;5053858;28;20029;-88
2023/12/19 08:57:41;;;;;;;22.88;17.42;;;8.80;99.90;;;;;;5055315;28;20031;-88
2023/12/19 09:00:12;;;;;;;23.85;18.15;;;8.80;99.90;;;;;;5055122;28;20025;-86
2023/12/19 09:02:44;;;;;;;20.48;16.40;;;8.80;99.90;;;;;;5051913;28;20088;-86
2023/12/19 09:05:14;;;;;;;21.15;15.38;;;8.80;99.90;;;;;;5076782;28;20091;-87
2023/12/19 09:07:40;;;;;;;19.65;14.27;;;8.80;99.90;;;;;;5075996;28;20048;-85
2023/12/19 09:10:07;;;;;;;19.05;14.70;;;8.80;99.90;;;;;;5063611;28;20052;-87
2023/12/19 09:12:33;;;;;;;17.80;14.57;;;8.80;99.90;;;;;;5053780;28;20071;-86
2023/12/19 09:14:59;;;;;;;17.25;13.98;;;8.90;99.90;;;;;;5055057;28;20116;-86
2023/12/19 09:17:25;;;;;;;17.98;13.65;;;8.90;99.90;;;;;;5053167;28;20097;-87
2023/12/19 09:19:50;;;;;;;17.63;13.23;;;8.90;99.90;;;;;;5053725;28;20541;-87
2023/12/19 09:22:19;;;;;;;17.70;13.57;;;9.00;99.90;;;;;;5036601;28;20132;-87
2023/12/19 09:24:44;;;;;;;14.32;12.32;;;8.90;99.90;;;;;;5036590;28;20060;-88
2023/12/19 09:27:10;;;;;;;15.60;12.65;;;9.00;99.90;;;;;;5053293;28;20500;-87
2023/12/19 09:29:36;;;;;;;14.18;11.60;;;8.90;99.90;;;;;;5052962;28;20029;-88
2023/12/19 09:32:05;;;;;;;13.10;11.00;;;8.90;99.90;;;;;;5036871;28;20025;-87
2023/12/19 09:34:31;;;;;;;13.45;10.77;;;8.90;99.90;;;;;;5052986;28;20086;-87
2023/12/19 09:36:56;;;;;;;13.48;10.85;;;8.90;99.90;;;;;;5036493;28;20389;-86
2023/12/19 09:39:25;;;;;;;13.32;10.82;;;9.00;99.90;;;;;;5036420;28;20035;-85
2023/12/19 09:41:51;;;;;;;13.43;10.60;;;9.00;99.90;;;;;;5052860;28;20070;-87
2023/12/19 09:44:17;;;;;;;13.20;10.15;;;8.90;99.90;;;;;;5036157;28;20025;-87
2023/12/19 09:46:47;;;;;;;11.15;9.43;;;8.90;99.90;;;;;;5053211;28;20061;-87
2023/12/19 09:49:13;;;;;;;10.80;8.83;;;8.90;99.90;;;;;;5054320;28;20025;-87
2023/12/19 09:51:43;;;;;;;11.88;9.48;;;9.00;99.90;;;;;;5053654;28;20255;-87
2023/12/19 09:54:09;;;;;;;11.77;9.07;;;8.90;99.90;;;;;;5052816;28;20024;-87
2023/12/19 09:56:35;;;;;;;11.38;9.00;;;9.00;99.90;;;;;;5053993;28;20044;-86
2023/12/19 09:59:03;;;;;;;12.32;9.35;;;9.00;99.90;;;;;;5036123;28;20060;-87
2023/12/19 10:01:29;;;;;;;12.13;10.07;;;9.00;99.90;;;;;;5052943;28;20021;-88
2023/12/19 10:03:55;;;;;;;13.07;9.48;;;8.90;99.90;;;;;;5053461;28;20358;-86
2023/12/19 10:06:24;;;;;;;12.70;9.45;;;8.90;99.90;;;;;;5036126;28;20083;-87
2023/12/19 10:08:53;;;;;;;12.82;9.38;;;8.90;99.90;;;;;;5036167;28;20048;-87
2023/12/19 10:11:23;;;;;;;10.85;9.30;;;8.90;99.90;;;;;;5052903;28;20025;-86
2023/12/19 10:13:49;;;;;;;10.77;9.10;;;9.00;99.90;;;;;;5053716;28;20381;-85
2023/12/19 10:16:17;;;;;;;13.23;9.48;;;8.90;99.90;;;;;;5052892;28;20033;-87
2023/12/19 10:18:52;;;;;;;11.60;9.48;;;8.90;99.90;;;;;;5039905;28;20051;-87
2023/12/19 10:21:20;;;;;;;10.63;9.10;;;8.90;99.90;;;;;;5057111;28;20495;-87
2023/12/19 10:23:46;;;;;;;13.20;9.07;;;8.90;99.90;;;;;;5058793;28;20100;-87
2023/12/19 10:26:12;;;;;;;12.05;9.10;;;8.90;99.90;;;;;;5057714;28;20029;-87
2023/12/19 10:28:38;;;;;;;10.57;8.80;;;8.90;99.90;;;;;;5058420;28;20103;-87
2023/12/19 10:31:15;;;;;;;10.05;8.85;;;8.90;99.90;;;;;;5069654;28;20001;-86
2023/12/19 10:33:50;;;;;;;10.27;8.75;;;8.90;99.90;;;;;;5080429;28;20009;-85
2023/12/19 10:36:25;;;;;;;10.38;8.50;;;8.90;99.90;;;;;;5080123;28;20059;-86
2023/12/19 10:38:55;;;;;;;11.02;8.48;;;8.90;99.90;;;;;;5079147;28;20009;-86
2023/12/19 10:41:22;;;;;;;10.82;8.82;;;9.00;99.90;;;;;;5061536;28;20143;-87
2023/12/19 10:43:50;;;;;;;10.57;8.90;;;9.00;99.90;;;;;;5057855;28;20404;-87
2023/12/19 10:46:24;;;;;;;9.63;8.60;;;9.00;99.90;;;;;;5056564;28;20033;-87
2023/12/19 10:48:51;;;;;;;11.18;9.13;;;9.00;99.90;;;;;;5040358;28;20033;-87
2023/12/19 10:51:23;;;;;;;11.35;8.80;;;9.00;99.90;;;;;;5055772;28;20028;-87
2023/12/19 10:53:58;;;;;;;10.35;8.93;;;9.00;99.90;;;;;;5057234;28;20052;-87
2023/12/19 10:56:24;;;;;;;9.77;7.75;;;9.00;99.90;;;;;;5057323;28;20052;-87
2023/12/19 10:58:58;;;;;;;9.27;7.55;;;9.00;99.90;;;;;;5039185;28;20112;-87
2023/12/19 11:01:26;;;;;;;9.85;8.48;;;9.00;99.90;;;;;;5057406;28;20029;-86
2023/12/19 11:03:59;;;;;;;10.25;8.10;;;8.90;99.90;;;;;;5055812;28;20032;-87
2023/12/19 11:06:36;;;;;;;10.02;7.85;;;9.00;99.90;;;;;;5055340;28;20457;-87
2023/12/19 11:09:05;;;;;;;10.27;7.72;;;9.00;99.90;;;;;;5055723;28;20021;-87
2023/12/19 11:11:38;;;;;;;9.75;7.78;;;9.00;99.90;;;;;;5056916;28;20175;-85
2023/12/19 11:14:07;;;;;;;9.25;7.47;;;9.00;99.90;;;;;;5039452;28;20021;-87
2023/12/19 11:16:48;;;;;;;10.85;8.45;;;9.00;99.90;;;;;;5055430;28;20487;-85
2023/12/19 11:19:39;;;;;;;9.40;7.15;;;9.00;99.90;;;;;;5055577;28;20020;-87
2023/12/19 11:22:31;;;;;;;8.68;6.90;;;9.00;99.90;;;;;;5055546;28;20465;-87
2023/12/19 11:25:11;;;;;;;9.35;6.97;;;9.00;99.90;;;;;;5055054;28;20078;-88
2023/12/19 11:27:47;;;;;;;10.65;7.28;;;9.00;99.90;;;;;;5055458;28;20044;-87
2023/12/19 11:30:36;;;;;;;8.55;7.40;;;9.00;99.90;;;;;;5055594;28;20120;-88
2023/12/19 11:33:07;;;;;;;8.77;7.38;;;9.00;99.90;;;;;;5055655;28;20033;-88
2023/12/19 11:35:33;;;;;;;11.00;7.93;;;9.00;99.90;;;;;;5055938;28;20029;-87
2023/12/19 11:38:14;;;;;;;9.18;7.28;;;9.00;99.90;;;;;;5055122;28;20040;-87
2023/12/19 11:40:46;;;;;;;8.68;7.53;;;9.00;99.90;;;;;;5055335;28;20025;-88
2023/12/19 11:43:31;;;;;;;10.15;7.07;;;9.00;99.90;;;;;;5055493;28;20029;-87
2023/12/19 11:46:18;;;;;;;8.40;7.07;;;9.00;99.90;;;;;;5056484;28;20025;-88
2023/12/19 11:48:48;;;;;;;8.40;6.47;;;9.00;99.90;;;;;;5055245;28;20527;-87
2023/12/19 11:51:33;;;;;;;8.98;6.82;;;9.00;99.90;;;;;;5056025;28;20089;-88
2023/12/19 11:53:59;;;;;;;7.30;6.13;;;9.00;99.90;;;;;;5057321;28;20029;-88
2023/12/19 11:56:25;;;;;;;7.22;5.85;;;9.10;99.90;;;;;;5039733;28;20036;-87
2023/12/19 11:58:51;;;;;;;7.05;5.90;;;9.10;99.90;;;;;;5043547;28;20035;-87
2023/12/19 12:01:20;;;;;;;7.35;6.00;;;9.10;99.90;;;;;;5046138;28;20041;-88
2023/12/19 12:03:47;;;;;;;6.70;5.75;;;9.10;99.90;;;;;;5072117;28;20028;-88
2023/12/19 12:06:13;;;;;;;8.05;6.60;;;9.10;99.90;;;;;;5062477;28;20055;-88
2023/12/19 12:08:39;;;;;;;7.43;5.68;;;9.10;99.90;;;;;;5057164;28;20108;-84
2023/12/19 12:11:07;;;;;;;6.60;5.90;;;9.10;99.90;;;;;;5055794;28;20037;-87
2023/12/19 12:13:35;;;;;;;7.90;6.18;;;9.10;99.90;;;;;;5055253;28;20057;-87
2023/12/19 12:16:02;;;;;;;7.32;5.57;;;9.10;99.90;;;;;;5038159;28;20116;-88
2023/12/19 12:18:30;;;;;;;7.53;6.05;;;9.20;99.90;;;;;;5038149;28;20380;-87
2023/12/19 12:21:09;;;;;;;6.78;5.40;;;9.10;99.90;;;;;;5038088;28;20040;-87
2023/12/19 12:23:35;;;;;;;7.70;5.75;;;9.10;99.90;;;;;;5055588;28;20464;-88
2023/12/19 12:26:01;;;;;;;6.32;5.40;;;9.20;99.90;;;;;;5054400;28;20044;-88
2023/12/19 12:28:28;;;;;;;7.50;5.03;;;9.20;99.90;;;;;;5037926;28;20048;-88
2023/12/19 12:30:59;;;;;;;6.18;5.10;;;9.20;99.90;;;;;;5037839;28;20025;-87
2023/12/19 12:33:26;;;;;;;5.90;4.60;;;9.20;99.90;;;;;;5054583;28;20078;-87
2023/12/19 12:35:52;;;;;;;5.78;4.82;;;9.20;99.90;;;;;;5053987;28;20025;-87
2023/12/19 12:38:20;;;;;;;5.38;4.60;;;9.20;99.90;;;;;;5054340;28;20066;-87
2023/12/19 12:41:00;;;;;;;5.30;4.80;;;9.20;99.90;;;;;;5054311;28;20029;-87